West Sayville, New York
Current Conditions -  °F | °C
As of 2:56 AM on Monday 26 Jan 2015 (Local Time) from KISP Reporting Station
Overcast Overcast  
Wind Chill: 15°   Ceiling: 5500
Heat Index: 26°   Visibility: 10mi
Dew Point: 11°   Wind: 13mph
Humidity: 53%   Direction: 30°NNE
Pressure: 30.02"   Gusts: NA
Location:  40.73°N, 73.1°W
Report Text: KISP 260756Z AUTO 03011KT 10SM OVC055 M03/M12 A3002 RMK AO2 SLP165 T10331117
Loading
Personal Weather Stations






























Interactive Weather Map New forecast layout! Learn more

10-Day Weather Forecast

Advertisements
Track Severe Weather on mobile